Time;durP1;ratioP1;P1;durP2;ratioP2;P2;SDS_P1;SDS_P2;PMS_P1;PMS_P2;Temp;Humidity;BMP_temperature;BMP_pressure;BME280_temperature;BME280_humidity;BME280_pressure;Samples;Min_cycle;Max_cycle;Signal;HPM_P1;HPM_P2
2024/04/01 04:51:04;;;;;;;13.53;9.57;;;11.00;99.90;;;;;;4983760;28;20208;-83
2024/04/01 04:54:10;;;;;;;13.03;9.27;;;10.90;99.90;;;;;;4990390;28;20199;-84
2024/04/01 05:40:24;;;;;;;12.00;9.70;;;10.90;99.90;;;;;;4905306;29;20308;-83
2024/04/01 10:44:35;;;;;;;17.17;14.30;;;12.00;99.90;;;;;;5074013;22;20275;-84
2024/04/01 10:47:28;;;;;;;20.67;15.27;;;12.10;99.90;;;;;;5066279;28;20750;-84
2024/04/01 10:50:08;;;;;;;18.67;15.27;;;12.20;99.90;;;;;;5067443;28;20197;-84
2024/04/01 10:52:55;;;;;;;21.80;15.63;;;12.10;99.90;;;;;;5064586;28;20596;-84
2024/04/01 12:03:03;;;;;;;17.23;14.73;;;12.80;99.90;;;;;;5006308;28;20328;-88
2024/04/01 12:06:16;;;;;;;16.57;14.23;;;12.80;99.90;;;;;;5028180;28;20202;-89
2024/04/01 12:13:14;;;;;;;16.83;13.33;;;12.70;99.90;;;;;;5029304;28;20238;-87
2024/04/01 12:16:08;;;;;;;17.50;13.23;;;12.60;99.90;;;;;;5067085;28;20207;-87
2024/04/01 12:56:09;;;;;;;9.07;7.23;;;12.70;99.90;;;;;;4919889;28;20320;-88
2024/04/01 13:02:30;;;;;;;7.77;6.97;;;12.60;99.90;;;;;;4984954;28;20290;-88
2024/04/01 13:12:44;;;;;;;;;;;;;;;;;;;;;
2024/04/01 13:15:20;;;;;;;8.17;6.80;;;12.40;99.90;;;;;;5023298;28;20206;-88
2024/04/01 13:18:41;;;;;;;8.83;7.43;;;12.30;99.90;;;;;;5051214;28;20342;-88
2024/04/01 13:21:53;;;;;;;10.27;7.80;;;12.40;99.90;;;;;;5027123;28;20283;-88
2024/04/01 13:24:29;;;;;;;9.30;7.57;;;12.30;99.90;;;;;;5056996;28;20240;-88
2024/04/01 13:27:08;;;;;;;8.67;7.87;;;12.30;99.90;;;;;;5056349;28;20203;-88
2024/04/01 13:29:53;;;;;;;8.87;7.97;;;12.30;99.90;;;;;;5063232;28;20197;-87
2024/04/01 13:33:07;;;;;;;6.47;5.87;;;12.20;99.90;;;;;;5055820;28;20727;-88
2024/04/01 13:35:51;;;;;;;7.53;6.40;;;12.10;99.90;;;;;;5057935;28;20207;-88
2024/04/01 13:38:48;;;;;;;6.70;5.90;;;11.90;99.90;;;;;;5059072;28;20201;-88
2024/04/01 13:48:41;;;;;;;7.97;7.17;;;11.70;99.90;;;;;;5048666;28;20288;-88
2024/04/01 13:51:55;;;;;;;8.00;7.20;;;11.80;99.90;;;;;;5057139;28;20207;-88
2024/04/01 13:55:01;;;;;;;7.77;6.80;;;11.70;99.90;;;;;;5016580;28;20213;-88
2024/04/01 14:00:57;;;;;;;7.93;7.13;;;11.80;99.90;;;;;;5056831;28;20701;-88
2024/04/01 14:04:02;;;;;;;8.43;7.53;;;11.70;99.90;;;;;;5044439;28;20236;-88
2024/04/01 14:13:41;;;;;;;8.50;7.60;;;11.90;99.90;;;;;;5006451;28;20638;-88
2024/04/01 14:16:22;;;;;;;9.17;7.83;;;11.90;99.90;;;;;;5056702;28;20284;-88
2024/04/01 14:36:03;;;;;;;7.60;6.90;;;11.90;99.90;;;;;;5078279;28;20662;-88
2024/04/01 17:48:01;;;;;;;6.50;4.90;;;11.10;99.90;;;;;;5067618;28;20577;-84
2024/04/01 17:50:29;;;;;;;5.77;4.10;;;11.10;99.90;;;;;;5070660;28;20284;-85
2024/04/01 17:52:56;;;;;;;7.30;4.10;;;11.10;99.90;;;;;;5070498;28;20228;-85
2024/04/01 17:55:22;;;;;;;4.97;3.87;;;11.00;99.90;;;;;;5070317;28;20264;-84
2024/04/01 17:57:49;;;;;;;5.60;3.80;;;11.00;99.90;;;;;;5070200;28;20231;-84
2024/04/01 18:00:16;;;;;;;5.73;3.47;;;11.00;99.90;;;;;;5070416;28;20284;-84
2024/04/01 18:02:43;;;;;;;5.47;3.67;;;11.00;99.90;;;;;;5070712;28;20197;-84
2024/04/01 18:05:12;;;;;;;6.07;3.70;;;11.00;99.90;;;;;;5070810;28;20212;-85
2024/04/01 18:07:39;;;;;;;5.37;3.77;;;11.10;99.90;;;;;;5070660;28;20558;-85
2024/04/01 18:10:06;;;;;;;3.90;3.40;;;11.00;99.90;;;;;;5070374;28;20289;-84
2024/04/01 18:12:33;;;;;;;4.20;3.10;;;11.00;99.90;;;;;;5070208;28;20688;-85
2024/04/01 18:15:00;;;;;;;4.70;2.93;;;11.00;99.90;;;;;;5057209;28;20722;-84
2024/04/01 18:17:27;;;;;;;6.27;3.73;;;11.00;99.90;;;;;;5059251;28;20197;-84
2024/04/01 18:19:53;;;;;;;5.37;3.17;;;11.00;99.90;;;;;;5070973;28;20268;-84
2024/04/01 18:22:22;;;;;;;5.67;3.73;;;11.00;99.90;;;;;;5070914;28;20204;-84
2024/04/01 18:24:49;;;;;;;6.87;3.40;;;11.00;99.90;;;;;;5070947;28;20180;-84
2024/04/01 18:27:16;;;;;;;4.77;3.27;;;11.00;99.90;;;;;;5070165;28;20449;-85
2024/04/01 18:29:42;;;;;;;5.57;3.33;;;10.90;99.90;;;;;;5015280;28;20230;-84
2024/04/01 18:32:09;;;;;;;3.93;2.80;;;10.90;99.90;;;;;;5030334;28;20222;-85
2024/04/01 18:34:35;;;;;;;5.07;2.80;;;10.90;99.90;;;;;;5030735;28;20212;-84
2024/04/01 18:37:05;;;;;;;6.13;3.30;;;10.90;99.90;;;;;;5030225;28;20215;-84
2024/04/01 18:39:35;;;;;;;6.43;3.20;;;10.90;99.90;;;;;;5030742;28;20293;-84
2024/04/01 18:42:05;;;;;;;6.70;3.50;;;10.90;99.90;;;;;;5030750;28;20645;-83
2024/04/01 18:44:31;;;;;;;6.50;2.90;;;10.90;99.90;;;;;;5030947;28;20217;-84
2024/04/01 18:46:58;;;;;;;3.63;2.47;;;10.90;99.90;;;;;;5023858;28;20284;-85
2024/04/01 18:49:29;;;;;;;4.90;2.80;;;10.90;99.90;;;;;;5029264;28;20228;-83
2024/04/01 18:51:59;;;;;;;7.07;2.80;;;10.80;99.90;;;;;;5030143;28;20305;-85
2024/04/01 18:54:25;;;;;;;2.97;2.60;;;10.80;99.90;;;;;;5019714;28;20290;-83
2024/04/01 18:56:54;;;;;;;5.77;2.70;;;10.80;99.90;;;;;;5011670;28;20644;-83
2024/04/01 18:59:21;;;;;;;4.53;2.30;;;10.70;99.90;;;;;;5017466;28;20194;-84
2024/04/01 19:01:48;;;;;;;4.43;2.33;;;10.70;99.90;;;;;;5034961;28;20244;-83
2024/04/01 19:04:14;;;;;;;3.17;2.00;;;10.70;99.90;;;;;;5035175;28;20203;-84
2024/04/01 19:06:46;;;;;;;7.27;2.40;;;10.70;99.90;;;;;;5026712;28;20323;-85
2024/04/01 19:09:13;;;;;;;4.20;2.20;;;10.70;99.90;;;;;;5014483;28;20610;-83
2024/04/01 19:11:40;;;;;;;4.83;2.27;;;10.70;99.90;;;;;;5024350;28;20241;-84
2024/04/01 19:14:08;;;;;;;4.50;2.03;;;10.70;99.90;;;;;;5034726;28;20234;-83
2024/04/01 19:16:35;;;;;;;4.33;2.03;;;10.70;99.90;;;;;;5034230;28;20296;-83
2024/04/01 19:19:03;;;;;;;4.67;1.93;;;10.70;99.90;;;;;;5028704;28;20209;-85
2024/04/01 19:21:30;;;;;;;6.00;2.03;;;10.60;99.90;;;;;;5012848;28;20651;-84
2024/04/01 19:23:57;;;;;;;6.80;1.70;;;10.60;99.90;;;;;;5031085;28;20306;-83
2024/04/01 19:26:24;;;;;;;4.83;1.53;;;10.60;99.90;;;;;;5032621;28;20297;-84
2024/04/01 19:28:51;;;;;;;4.90;2.07;;;10.60;99.90;;;;;;5009254;28;20238;-84
2024/04/01 19:31:18;;;;;;;3.07;1.80;;;10.60;99.90;;;;;;5032773;28;20297;-83
2024/04/01 19:33:46;;;;;;;4.17;1.90;;;10.60;99.90;;;;;;5034218;28;20219;-82
2024/04/01 19:36:12;;;;;;;4.40;2.27;;;10.60;99.90;;;;;;5036692;28;20223;-83
2024/04/01 19:38:39;;;;;;;6.40;2.70;;;10.60;99.90;;;;;;5045001;28;20209;-83
2024/04/01 19:41:05;;;;;;;5.77;2.90;;;10.60;99.90;;;;;;5056267;28;20664;-83
2024/04/01 19:43:32;;;;;;;8.87;4.10;;;10.50;99.90;;;;;;5056355;28;20193;-82
2024/04/01 19:45:58;;;;;;;8.03;4.10;;;10.50;99.90;;;;;;5054876;28;20313;-83
2024/04/01 19:48:29;;;;;;;5.20;3.00;;;10.50;99.90;;;;;;5054859;28;20324;-83
2024/04/01 19:50:55;;;;;;;5.37;3.03;;;10.40;99.90;;;;;;5054232;28;20260;-83
2024/04/01 19:53:23;;;;;;;4.77;2.63;;;10.50;99.90;;;;;;5055034;28;20217;-83
2024/04/01 19:55:49;;;;;;;5.40;3.20;;;10.40;99.90;;;;;;5042733;28;20230;-82
2024/04/01 19:58:16;;;;;;;5.90;2.90;;;10.40;99.90;;;;;;5033769;28;20285;-82
2024/04/01 20:00:42;;;;;;;6.50;2.30;;;10.40;99.90;;;;;;5036400;28;20717;-83
2024/04/01 20:03:09;;;;;;;3.67;2.77;;;10.40;99.90;;;;;;5035591;28;20277;-84
2024/04/01 20:05:37;;;;;;;8.97;3.03;;;10.40;99.90;;;;;;5034547;28;20315;-83
2024/04/01 20:08:09;;;;;;;6.93;2.70;;;10.40;99.90;;;;;;5034073;28;20257;-83
2024/04/01 20:10:36;;;;;;;6.43;2.70;;;10.40;99.90;;;;;;5034649;28;20286;-83
2024/04/01 20:13:04;;;;;;;6.80;2.87;;;10.50;99.90;;;;;;5032624;28;20222;-84
2024/04/01 20:15:35;;;;;;;3.90;2.50;;;10.40;99.90;;;;;;5033099;28;20317;-83
2024/04/01 20:18:03;;;;;;;4.93;2.80;;;10.40;99.90;;;;;;5032608;28;20365;-83
2024/04/01 20:20:30;;;;;;;4.40;2.53;;;10.40;99.90;;;;;;5032818;28;20574;-83
2024/04/01 20:23:02;;;;;;;5.93;2.37;;;10.30;99.90;;;;;;5032770;28;20202;-83
2024/04/01 20:25:28;;;;;;;4.73;2.83;;;10.40;99.90;;;;;;5032670;28;20310;-84
2024/04/01 20:27:55;;;;;;;6.67;2.57;;;10.40;99.90;;;;;;5032331;28;20205;-83
2024/04/01 20:30:29;;;;;;;5.03;2.73;;;10.30;99.90;;;;;;4998980;28;20235;-84
2024/04/01 20:32:56;;;;;;;6.43;2.80;;;10.30;99.90;;;;;;5001692;28;20259;-83
2024/04/01 20:35:23;;;;;;;4.93;2.63;;;10.30;99.90;;;;;;4992885;28;20337;-84
2024/04/01 20:37:51;;;;;;;4.40;2.47;;;10.30;99.90;;;;;;4991219;28;20201;-84
2024/04/01 20:40:19;;;;;;;7.40;2.33;;;10.30;99.90;;;;;;4992491;28;20295;-85
2024/04/01 20:42:48;;;;;;;3.67;2.10;;;10.30;99.90;;;;;;4992960;28;20667;-84
2024/04/01 20:45:17;;;;;;;6.57;2.53;;;10.30;99.90;;;;;;4992719;28;20258;-84
2024/04/01 20:47:44;;;;;;;5.07;2.37;;;10.20;99.90;;;;;;4992134;28;20214;-83
2024/04/01 20:50:15;;;;;;;6.77;2.60;;;10.20;99.90;;;;;;4992485;28;20327;-84
2024/04/01 20:52:44;;;;;;;10.27;2.53;;;10.20;99.90;;;;;;4990651;28;20314;-83
2024/04/01 20:55:11;;;;;;;5.60;2.63;;;10.20;99.90;;;;;;4990785;28;20275;-84
2024/04/01 20:57:42;;;;;;;6.70;2.63;;;10.20;99.90;;;;;;4990795;28;20232;-83
2024/04/01 21:00:29;;;;;;;4.10;2.50;;;10.10;99.90;;;;;;4991236;28;20204;-83
2024/04/01 21:02:56;;;;;;;7.53;2.70;;;10.20;99.90;;;;;;4991710;28;20184;-83
2024/04/01 21:05:24;;;;;;;4.03;2.67;;;10.10;99.90;;;;;;5006897;28;20318;-83
2024/04/01 21:07:51;;;;;;;3.70;2.53;;;10.10;99.90;;;;;;5009978;28;20196;-84
2024/04/01 21:10:17;;;;;;;3.50;2.40;;;10.10;99.90;;;;;;5009700;28;20239;-83
2024/04/01 21:12:45;;;;;;;5.93;2.57;;;10.10;99.90;;;;;;5010093;28;20246;-84
2024/04/01 21:15:11;;;;;;;4.70;2.63;;;10.00;99.90;;;;;;5010112;28;20287;-84
2024/04/01 21:17:39;;;;;;;3.90;2.83;;;10.10;99.90;;;;;;5010288;28;20279;-83
2024/04/01 21:20:06;;;;;;;3.33;2.47;;;10.10;99.90;;;;;;5010799;28;20203;-84
2024/04/01 21:22:33;;;;;;;4.37;2.77;;;10.10;99.90;;;;;;5011988;28;20258;-84
2024/04/01 21:24:59;;;;;;;4.73;2.40;;;10.10;99.90;;;;;;5012037;28;20307;-84
2024/04/01 21:27:26;;;;;;;7.10;2.67;;;10.10;99.90;;;;;;5012353;28;20286;-83
2024/04/01 21:29:54;;;;;;;5.67;2.57;;;10.00;99.90;;;;;;5003050;28;20322;-83
2024/04/01 21:32:21;;;;;;;6.97;2.70;;;10.00;99.90;;;;;;5017204;28;20701;-83
2024/04/01 21:34:47;;;;;;;5.53;2.40;;;10.00;99.90;;;;;;5011562;28;20253;-83
2024/04/01 21:37:14;;;;;;;6.17;2.80;;;9.90;99.90;;;;;;5012240;28;20223;-83
2024/04/01 21:39:40;;;;;;;5.90;2.73;;;9.90;99.90;;;;;;5011799;28;20231;-84
2024/04/01 21:42:07;;;;;;;7.53;3.20;;;9.90;99.90;;;;;;5011782;28;20310;-83
2024/04/01 21:44:33;;;;;;;3.73;2.50;;;9.90;99.90;;;;;;5011576;28;20287;-83
2024/04/01 21:47:02;;;;;;;7.93;3.20;;;9.90;99.90;;;;;;5010885;28;20627;-84
2024/04/01 21:49:27;;;;;;;6.97;2.93;;;9.90;99.90;;;;;;5011647;28;20235;-85
2024/04/01 21:51:54;;;;;;;6.60;3.00;;;9.90;99.90;;;;;;5011699;28;20609;-84
2024/04/01 21:54:20;;;;;;;7.60;2.63;;;9.80;99.90;;;;;;5011405;28;20765;-84
2024/04/01 21:56:48;;;;;;;5.37;2.80;;;9.80;99.90;;;;;;5019600;28;20310;-83
2024/04/01 21:59:14;;;;;;;4.37;2.50;;;9.80;99.90;;;;;;5014687;28;20627;-84
2024/04/01 22:01:41;;;;;;;5.23;2.90;;;9.80;99.90;;;;;;5011900;28;20286;-84
2024/04/01 22:04:08;;;;;;;5.63;3.17;;;9.80;99.90;;;;;;5011280;28;20214;-84
2024/04/01 22:06:35;;;;;;;5.03;3.50;;;9.70;99.90;;;;;;5011935;28;20288;-84
2024/04/01 22:09:01;;;;;;;9.83;4.10;;;9.70;99.90;;;;;;5011823;28;20187;-84
2024/04/01 22:11:28;;;;;;;8.33;4.17;;;9.70;99.90;;;;;;5011753;28;20551;-83
2024/04/01 22:13:53;;;;;;;8.47;3.87;;;9.70;99.90;;;;;;5012548;28;20215;-84
2024/04/01 22:16:20;;;;;;;8.97;4.17;;;9.70;99.90;;;;;;5011309;28;20326;-84
2024/04/01 22:18:46;;;;;;;6.73;4.03;;;9.70;99.90;;;;;;5012338;28;20297;-84
2024/04/01 22:21:14;;;;;;;7.50;4.67;;;9.70;99.90;;;;;;5011810;28;20282;-83
2024/04/01 22:23:40;;;;;;;7.10;4.30;;;9.70;99.90;;;;;;5011606;28;20293;-84
2024/04/01 22:26:07;;;;;;;10.37;4.87;;;9.70;99.90;;;;;;5011271;28;20781;-84
2024/04/01 22:28:33;;;;;;;6.97;4.43;;;9.70;99.90;;;;;;5008614;28;20290;-84
2024/04/01 22:31:00;;;;;;;6.30;4.17;;;9.70;99.90;;;;;;5012569;28;20254;-84
2024/04/01 22:33:26;;;;;;;9.27;4.60;;;9.70;99.90;;;;;;5023574;28;20313;-84
2024/04/01 22:35:53;;;;;;;7.20;4.57;;;9.70;99.90;;;;;;5034013;28;20249;-84
2024/04/01 22:38:20;;;;;;;7.97;4.20;;;9.70;99.90;;;;;;5036346;28;20238;-84
2024/04/01 22:40:47;;;;;;;6.23;4.43;;;9.80;99.90;;;;;;5035748;28;20564;-84
2024/04/01 22:43:15;;;;;;;9.47;4.50;;;9.80;99.90;;;;;;5035122;28;20297;-84
2024/04/01 22:45:42;;;;;;;5.80;4.27;;;9.70;99.90;;;;;;5035237;28;20628;-84
2024/04/01 22:48:08;;;;;;;8.37;4.43;;;9.70;99.90;;;;;;5035684;28;20265;-84
2024/04/01 22:50:35;;;;;;;12.37;4.40;;;9.70;99.90;;;;;;5035047;28;20546;-84
2024/04/01 22:53:01;;;;;;;7.67;4.17;;;9.70;99.90;;;;;;5035428;28;20664;-84
2024/04/01 22:55:29;;;;;;;8.40;4.30;;;9.70;99.90;;;;;;5035782;28;20246;-83
2024/04/01 22:57:55;;;;;;;9.00;4.17;;;9.70;99.90;;;;;;5036238;28;20245;-84
2024/04/01 23:00:22;;;;;;;5.13;4.57;;;9.70;99.90;;;;;;5035453;28;20211;-84
2024/04/01 23:02:48;;;;;;;5.83;3.83;;;9.70;99.90;;;;;;5035457;28;20717;-83
2024/04/01 23:05:15;;;;;;;5.93;3.87;;;9.80;99.90;;;;;;5035052;28;20313;-83
2024/04/01 23:07:42;;;;;;;5.83;4.27;;;9.80;99.90;;;;;;5034784;28;20298;-84
2024/04/01 23:10:09;;;;;;;7.50;4.20;;;9.80;99.90;;;;;;5034750;28;20205;-83
2024/04/01 23:12:36;;;;;;;6.13;4.10;;;9.80;99.90;;;;;;5034984;28;20634;-83
2024/04/01 23:15:04;;;;;;;6.20;4.10;;;9.80;99.90;;;;;;5034597;28;20206;-84
2024/04/01 23:17:30;;;;;;;4.73;4.10;;;9.80;99.90;;;;;;5034512;28;20290;-84
2024/04/01 23:19:56;;;;;;;5.80;3.90;;;9.80;99.90;;;;;;5034348;28;20242;-84
2024/04/01 23:22:22;;;;;;;8.23;4.03;;;9.80;99.90;;;;;;5034704;28;20274;-84
2024/04/01 23:24:49;;;;;;;9.77;4.13;;;9.80;99.90;;;;;;5035044;28;20301;-84
2024/04/01 23:27:15;;;;;;;5.00;3.27;;;9.70;99.90;;;;;;5034159;28;20713;-84
2024/04/01 23:29:43;;;;;;;4.97;3.50;;;9.70;99.90;;;;;;5003114;28;20318;-84
2024/04/01 23:32:09;;;;;;;4.40;3.70;;;9.70;99.90;;;;;;5014397;28;20590;-84
2024/04/01 23:34:36;;;;;;;5.77;4.00;;;9.70;99.90;;;;;;5014054;28;20254;-84
2024/04/01 23:37:03;;;;;;;6.00;3.87;;;9.70;99.90;;;;;;5014852;28;20638;-84
2024/04/01 23:39:30;;;;;;;5.60;3.80;;;9.70;99.90;;;;;;5014321;28;20195;-84
2024/04/01 23:41:55;;;;;;;6.93;3.87;;;9.70;99.90;;;;;;5014874;28;20285;-84
2024/04/01 23:44:23;;;;;;;4.83;3.60;;;9.60;99.90;;;;;;5014339;28;20287;-84
2024/04/01 23:46:50;;;;;;;6.73;3.90;;;9.60;99.90;;;;;;5033353;22;20717;-81
2024/04/01 23:49:24;;;;;;;6.40;3.67;;;9.60;99.90;;;;;;5009333;28;20253;-82
2024/04/01 23:51:51;;;;;;;5.93;4.20;;;9.60;99.90;;;;;;4998349;28;20579;-81
2024/04/01 23:54:18;;;;;;;5.43;3.77;;;9.60;99.90;;;;;;5005340;28;20228;-81
2024/04/01 23:56:49;;;;;;;9.87;4.10;;;9.50;99.90;;;;;;5001557;28;20212;-81
2024/04/01 23:59:18;;;;;;;4.80;3.87;;;9.50;99.90;;;;;;4998457;28;20227;-82
